sensor_id;sensor_type;location;lat;lon;timestamp;temperature;humidity
7461;DHT22;6757;52.258;12.840;2023-02-28T00:00:20;-0.90;99.90
7461;DHT22;6757;52.258;12.840;2023-02-28T00:02:48;-0.90;99.90
7461;DHT22;6757;52.258;12.840;2023-02-28T00:05:18;-0.90;99.90
7461;DHT22;6757;52.258;12.840;2023-02-28T00:07:46;-0.90;99.90
7461;DHT22;6757;52.258;12.840;2023-02-28T00:10:17;-0.90;99.90
7461;DHT22;6757;52.258;12.840;2023-02-28T00:12:46;-0.90;99.90
7461;DHT22;6757;52.258;12.840;2023-02-28T00:15:13;-0.90;99.90
7461;DHT22;6757;52.258;12.840;2023-02-28T00:17:40;-0.90;99.90
7461;DHT22;6757;52.258;12.840;2023-02-28T00:20:09;-0.90;99.90
7461;DHT22;6757;52.258;12.840;2023-02-28T00:22:41;-0.90;99.90
7461;DHT22;6757;52.258;12.840;2023-02-28T00:25:10;-0.90;99.90
7461;DHT22;6757;52.258;12.840;2023-02-28T00:27:40;-0.90;99.90
7461;DHT22;6757;52.258;12.840;2023-02-28T00:30:09;-0.90;99.90
7461;DHT22;6757;52.258;12.840;2023-02-28T00:32:38;-0.90;99.90
7461;DHT22;6757;52.258;12.840;2023-02-28T00:35:06;-0.80;99.90
7461;DHT22;6757;52.258;12.840;2023-02-28T00:37:34;-0.90;99.90
7461;DHT22;6757;52.258;12.840;2023-02-28T00:40:03;-0.80;99.90
7461;DHT22;6757;52.258;12.840;2023-02-28T00:42:31;-0.80;99.90
7461;DHT22;6757;52.258;12.840;2023-02-28T00:44:58;-0.90;99.90
7461;DHT22;6757;52.258;12.840;2023-02-28T00:47:25;-0.90;99.90
7461;DHT22;6757;52.258;12.840;2023-02-28T00:49:52;-0.90;99.90
7461;DHT22;6757;52.258;12.840;2023-02-28T00:52:19;-0.90;99.90
7461;DHT22;6757;52.258;12.840;2023-02-28T00:54:46;-0.90;99.90
7461;DHT22;6757;52.258;12.840;2023-02-28T00:57:15;-0.90;99.90
7461;DHT22;6757;52.258;12.840;2023-02-28T00:59:42;-0.90;99.90
7461;DHT22;6757;52.258;12.840;2023-02-28T01:02:08;-0.90;99.90
7461;DHT22;6757;52.258;12.840;2023-02-28T01:04:35;-0.90;99.90
7461;DHT22;6757;52.258;12.840;2023-02-28T01:07:02;-0.90;99.90
7461;DHT22;6757;52.258;12.840;2023-02-28T01:09:29;-0.90;99.90
7461;DHT22;6757;52.258;12.840;2023-02-28T01:11:56;-0.90;99.90
7461;DHT22;6757;52.258;12.840;2023-02-28T01:14:24;-0.90;99.90
7461;DHT22;6757;52.258;12.840;2023-02-28T01:16:51;-0.90;99.90
7461;DHT22;6757;52.258;12.840;2023-02-28T01:19:18;-0.80;99.90
7461;DHT22;6757;52.258;12.840;2023-02-28T01:21:45;-0.80;99.90
7461;DHT22;6757;52.258;12.840;2023-02-28T01:24:12;-0.80;99.90
7461;DHT22;6757;52.258;12.840;2023-02-28T01:26:39;-0.80;99.90
7461;DHT22;6757;52.258;12.840;2023-02-28T01:29:06;-0.80;99.90
7461;DHT22;6757;52.258;12.840;2023-02-28T01:31:34;-0.80;99.90
7461;DHT22;6757;52.258;12.840;2023-02-28T01:34:02;-0.80;99.90
7461;DHT22;6757;52.258;12.840;2023-02-28T01:36:29;-0.80;99.90
7461;DHT22;6757;52.258;12.840;2023-02-28T01:38:56;-0.80;99.90
7461;DHT22;6757;52.258;12.840;2023-02-28T01:41:25;-0.80;99.90
7461;DHT22;6757;52.258;12.840;2023-02-28T01:43:58;-0.80;99.90
7461;DHT22;6757;52.258;12.840;2023-02-28T01:46:30;-0.90;99.90
7461;DHT22;6757;52.258;12.840;2023-02-28T01:49:05;-0.90;99.90
7461;DHT22;6757;52.258;12.840;2023-02-28T01:51:39;-0.90;99.90
7461;DHT22;6757;52.258;12.840;2023-02-28T01:54:12;-0.90;99.90
7461;DHT22;6757;52.258;12.840;2023-02-28T01:56:45;-0.90;99.90
7461;DHT22;6757;52.258;12.840;2023-02-28T01:59:17;-0.90;99.90
7461;DHT22;6757;52.258;12.840;2023-02-28T02:01:48;-0.90;99.90
7461;DHT22;6757;52.258;12.840;2023-02-28T02:04:17;-0.90;99.90
7461;DHT22;6757;52.258;12.840;2023-02-28T02:06:47;-0.90;99.90
7461;DHT22;6757;52.258;12.840;2023-02-28T02:09:14;-0.90;99.90
7461;DHT22;6757;52.258;12.840;2023-02-28T02:11:43;-0.90;99.90
7461;DHT22;6757;52.258;12.840;2023-02-28T02:14:23;-0.90;99.90
7461;DHT22;6757;52.258;12.840;2023-02-28T02:17:12;-0.90;99.90
7461;DHT22;6757;52.258;12.840;2023-02-28T02:19:53;-0.90;99.90
7461;DHT22;6757;52.258;12.840;2023-02-28T02:23:12;-0.90;99.90
7461;DHT22;6757;52.258;12.840;2023-02-28T02:26:06;-0.90;99.90
7461;DHT22;6757;52.258;12.840;2023-02-28T02:29:16;-0.90;99.90
7461;DHT22;6757;52.258;12.840;2023-02-28T02:32:13;-0.90;99.90
7461;DHT22;6757;52.258;12.840;2023-02-28T02:34:52;-0.90;99.90
7461;DHT22;6757;52.258;12.840;2023-02-28T02:37:32;-0.90;99.90
7461;DHT22;6757;52.258;12.840;2023-02-28T02:40:10;-0.90;99.90
7461;DHT22;6757;52.258;12.840;2023-02-28T02:42:45;-0.90;99.90
7461;DHT22;6757;52.258;12.840;2023-02-28T02:45:19;-0.90;99.90
7461;DHT22;6757;52.258;12.840;2023-02-28T02:47:50;-0.90;99.90
7461;DHT22;6757;52.258;12.840;2023-02-28T02:50:22;-0.90;99.90
7461;DHT22;6757;52.258;12.840;2023-02-28T02:52:54;-0.90;99.90
7461;DHT22;6757;52.258;12.840;2023-02-28T02:55:23;-0.90;99.90
7461;DHT22;6757;52.258;12.840;2023-02-28T02:57:54;-1.00;99.90
7461;DHT22;6757;52.258;12.840;2023-02-28T03:00:26;-1.00;99.90
7461;DHT22;6757;52.258;12.840;2023-02-28T03:02:57;-1.00;99.90
7461;DHT22;6757;52.258;12.840;2023-02-28T03:05:27;-1.00;99.90
7461;DHT22;6757;52.258;12.840;2023-02-28T03:07:55;-1.00;99.90
7461;DHT22;6757;52.258;12.840;2023-02-28T03:10:27;-1.00;99.90
7461;DHT22;6757;52.258;12.840;2023-02-28T03:13:03;-1.00;99.90
7461;DHT22;6757;52.258;12.840;2023-02-28T03:16:11;-1.10;99.90
7461;DHT22;6757;52.258;12.840;2023-02-28T03:18:54;-1.10;99.90
7461;DHT22;6757;52.258;12.840;2023-02-28T03:21:30;-1.10;99.90
7461;DHT22;6757;52.258;12.840;2023-02-28T03:24:05;-1.10;99.90
7461;DHT22;6757;52.258;12.840;2023-02-28T03:26:38;-1.20;99.90
7461;DHT22;6757;52.258;12.840;2023-02-28T03:29:10;-1.30;99.90
7461;DHT22;6757;52.258;12.840;2023-02-28T03:31:45;-1.20;99.90
7461;DHT22;6757;52.258;12.840;2023-02-28T03:34:19;-1.20;99.90
7461;DHT22;6757;52.258;12.840;2023-02-28T03:36:55;-1.30;99.90
7461;DHT22;6757;52.258;12.840;2023-02-28T03:39:27;-1.30;99.90
7461;DHT22;6757;52.258;12.840;2023-02-28T03:42:00;-1.40;99.90
7461;DHT22;6757;52.258;12.840;2023-02-28T03:44:32;-1.40;99.90
7461;DHT22;6757;52.258;12.840;2023-02-28T03:47:04;-1.40;99.90
7461;DHT22;6757;52.258;12.840;2023-02-28T03:49:37;-1.50;99.90
7461;DHT22;6757;52.258;12.840;2023-02-28T03:52:10;-1.60;99.90
7461;DHT22;6757;52.258;12.840;2023-02-28T03:54:41;-1.60;99.90
7461;DHT22;6757;52.258;12.840;2023-02-28T03:57:13;-1.70;99.90
7461;DHT22;6757;52.258;12.840;2023-02-28T03:59:47;-1.80;99.90
7461;DHT22;6757;52.258;12.840;2023-02-28T04:02:15;-1.80;99.90
7461;DHT22;6757;52.258;12.840;2023-02-28T04:04:42;-1.90;99.90
7461;DHT22;6757;52.258;12.840;2023-02-28T04:07:15;-1.90;99.90
7461;DHT22;6757;52.258;12.840;2023-02-28T04:09:43;-1.90;99.90
7461;DHT22;6757;52.258;12.840;2023-02-28T04:12:10;-2.00;99.90
7461;DHT22;6757;52.258;12.840;2023-02-28T04:14:37;-2.10;99.90
7461;DHT22;6757;52.258;12.840;2023-02-28T04:17:04;-2.10;99.90
7461;DHT22;6757;52.258;12.840;2023-02-28T04:19:31;-2.20;99.90
7461;DHT22;6757;52.258;12.840;2023-02-28T04:21:58;-2.20;99.90
7461;DHT22;6757;52.258;12.840;2023-02-28T04:24:27;-2.30;99.90
7461;DHT22;6757;52.258;12.840;2023-02-28T04:26:56;-2.30;99.90
7461;DHT22;6757;52.258;12.840;2023-02-28T04:29:26;-2.40;99.90
7461;DHT22;6757;52.258;12.840;2023-02-28T04:31:54;-2.40;99.90
7461;DHT22;6757;52.258;12.840;2023-02-28T04:34:24;-2.50;99.90
7461;DHT22;6757;52.258;12.840;2023-02-28T04:36:51;-2.50;99.90
7461;DHT22;6757;52.258;12.840;2023-02-28T04:39:20;-2.50;99.90
7461;DHT22;6757;52.258;12.840;2023-02-28T04:41:49;-2.60;99.90
7461;DHT22;6757;52.258;12.840;2023-02-28T04:44:17;-2.60;99.90
7461;DHT22;6757;52.258;12.840;2023-02-28T04:46:44;-2.70;99.90
7461;DHT22;6757;52.258;12.840;2023-02-28T04:49:11;-2.70;99.90
7461;DHT22;6757;52.258;12.840;2023-02-28T04:51:38;-2.80;99.90
7461;DHT22;6757;52.258;12.840;2023-02-28T04:54:06;-2.80;99.90
7461;DHT22;6757;52.258;12.840;2023-02-28T04:56:32;-2.90;99.90
7461;DHT22;6757;52.258;12.840;2023-02-28T04:59:01;-2.90;99.90
7461;DHT22;6757;52.258;12.840;2023-02-28T05:01:29;-2.90;99.90
7461;DHT22;6757;52.258;12.840;2023-02-28T05:03:59;-2.90;99.90
7461;DHT22;6757;52.258;12.840;2023-02-28T05:06:29;-2.90;99.90
7461;DHT22;6757;52.258;12.840;2023-02-28T05:08:56;-2.90;99.90
7461;DHT22;6757;52.258;12.840;2023-02-28T05:11:25;-2.90;99.90
7461;DHT22;6757;52.258;12.840;2023-02-28T05:13:54;-2.90;99.90
7461;DHT22;6757;52.258;12.840;2023-02-28T05:16:22;-2.90;99.90
7461;DHT22;6757;52.258;12.840;2023-02-28T05:18:50;-2.90;99.90
7461;DHT22;6757;52.258;12.840;2023-02-28T05:21:24;-3.00;99.90
7461;DHT22;6757;52.258;12.840;2023-02-28T05:23:53;-3.00;99.90
7461;DHT22;6757;52.258;12.840;2023-02-28T05:26:21;-3.00;99.90
7461;DHT22;6757;52.258;12.840;2023-02-28T05:28:48;-3.00;99.90
7461;DHT22;6757;52.258;12.840;2023-02-28T05:31:15;-3.00;99.90
7461;DHT22;6757;52.258;12.840;2023-02-28T05:33:44;-3.10;99.90
7461;DHT22;6757;52.258;12.840;2023-02-28T05:36:11;-3.10;99.90
7461;DHT22;6757;52.258;12.840;2023-02-28T05:38:38;-3.20;99.90
7461;DHT22;6757;52.258;12.840;2023-02-28T05:41:06;-3.20;99.90
7461;DHT22;6757;52.258;12.840;2023-02-28T05:43:34;-3.20;99.90
7461;DHT22;6757;52.258;12.840;2023-02-28T05:46:03;-3.30;99.90
7461;DHT22;6757;52.258;12.840;2023-02-28T05:48:31;-3.30;99.90
7461;DHT22;6757;52.258;12.840;2023-02-28T05:50:59;-3.40;99.90
7461;DHT22;6757;52.258;12.840;2023-02-28T05:53:26;-3.40;99.90
7461;DHT22;6757;52.258;12.840;2023-02-28T05:55:53;-3.40;99.90
7461;DHT22;6757;52.258;12.840;2023-02-28T05:58:20;-3.50;99.90
7461;DHT22;6757;52.258;12.840;2023-02-28T06:00:48;-3.50;99.90
7461;DHT22;6757;52.258;12.840;2023-02-28T06:03:15;-3.50;99.90
7461;DHT22;6757;52.258;12.840;2023-02-28T06:05:42;-3.60;99.90
7461;DHT22;6757;52.258;12.840;2023-02-28T06:08:10;-3.60;99.90
7461;DHT22;6757;52.258;12.840;2023-02-28T06:10:37;-3.60;99.90
7461;DHT22;6757;52.258;12.840;2023-02-28T06:13:05;-3.70;99.90
7461;DHT22;6757;52.258;12.840;2023-02-28T06:15:32;-3.70;99.90
7461;DHT22;6757;52.258;12.840;2023-02-28T06:17:59;-3.70;99.90
7461;DHT22;6757;52.258;12.840;2023-02-28T06:20:27;-3.80;99.90
7461;DHT22;6757;52.258;12.840;2023-02-28T06:22:55;-3.80;99.90
7461;DHT22;6757;52.258;12.840;2023-02-28T06:25:26;-3.80;99.90
7461;DHT22;6757;52.258;12.840;2023-02-28T06:27:53;-3.80;99.90
7461;DHT22;6757;52.258;12.840;2023-02-28T06:30:21;-3.80;99.90
7461;DHT22;6757;52.258;12.840;2023-02-28T06:32:50;-3.90;99.90
7461;DHT22;6757;52.258;12.840;2023-02-28T06:35:17;-3.90;99.90
7461;DHT22;6757;52.258;12.840;2023-02-28T06:37:44;-3.90;99.90
7461;DHT22;6757;52.258;12.840;2023-02-28T06:40:13;-3.90;99.90
7461;DHT22;6757;52.258;12.840;2023-02-28T06:42:41;-3.90;99.90
7461;DHT22;6757;52.258;12.840;2023-02-28T06:45:09;-3.90;99.90
7461;DHT22;6757;52.258;12.840;2023-02-28T06:47:37;-3.90;99.90
7461;DHT22;6757;52.258;12.840;2023-02-28T06:50:06;-3.90;99.90
7461;DHT22;6757;52.258;12.840;2023-02-28T06:52:34;-3.90;99.90
7461;DHT22;6757;52.258;12.840;2023-02-28T06:55:03;-3.90;99.90
7461;DHT22;6757;52.258;12.840;2023-02-28T06:57:32;-3.80;99.90
7461;DHT22;6757;52.258;12.840;2023-02-28T07:00:07;-3.80;99.90
7461;DHT22;6757;52.258;12.840;2023-02-28T07:02:36;-3.80;99.90
7461;DHT22;6757;52.258;12.840;2023-02-28T07:05:04;-3.80;99.90
7461;DHT22;6757;52.258;12.840;2023-02-28T07:07:31;-3.70;99.90
7461;DHT22;6757;52.258;12.840;2023-02-28T07:09:58;-3.70;99.90
7461;DHT22;6757;52.258;12.840;2023-02-28T07:12:25;-3.70;99.90
7461;DHT22;6757;52.258;12.840;2023-02-28T07:14:52;-3.60;99.90
7461;DHT22;6757;52.258;12.840;2023-02-28T07:17:21;-3.60;99.90
7461;DHT22;6757;52.258;12.840;2023-02-28T07:19:48;-3.50;99.90
7461;DHT22;6757;52.258;12.840;2023-02-28T07:22:14;-3.50;99.90
7461;DHT22;6757;52.258;12.840;2023-02-28T07:24:41;-3.40;99.90
7461;DHT22;6757;52.258;12.840;2023-02-28T07:27:09;-3.40;99.90
7461;DHT22;6757;52.258;12.840;2023-02-28T07:29:35;-3.30;99.90
7461;DHT22;6757;52.258;12.840;2023-02-28T07:32:04;-3.30;99.90
7461;DHT22;6757;52.258;12.840;2023-02-28T07:34:32;-3.20;99.90
7461;DHT22;6757;52.258;12.840;2023-02-28T07:36:59;-3.10;99.90
7461;DHT22;6757;52.258;12.840;2023-02-28T07:39:29;-3.10;99.90
7461;DHT22;6757;52.258;12.840;2023-02-28T07:41:56;-3.00;99.90
7461;DHT22;6757;52.258;12.840;2023-02-28T07:44:22;-2.90;99.90
7461;DHT22;6757;52.258;12.840;2023-02-28T07:46:49;-2.80;99.90
7461;DHT22;6757;52.258;12.840;2023-02-28T07:49:16;-2.80;99.90
7461;DHT22;6757;52.258;12.840;2023-02-28T07:51:44;-2.70;99.90
7461;DHT22;6757;52.258;12.840;2023-02-28T07:54:11;-2.60;99.90
7461;DHT22;6757;52.258;12.840;2023-02-28T07:56:38;-2.50;99.90
7461;DHT22;6757;52.258;12.840;2023-02-28T07:59:05;-2.40;99.90
7461;DHT22;6757;52.258;12.840;2023-02-28T08:01:32;-2.30;99.90
7461;DHT22;6757;52.258;12.840;2023-02-28T08:03:59;-2.20;99.90
7461;DHT22;6757;52.258;12.840;2023-02-28T08:06:25;-2.10;99.90
7461;DHT22;6757;52.258;12.840;2023-02-28T08:08:54;-2.10;99.90
7461;DHT22;6757;52.258;12.840;2023-02-28T08:11:21;-1.90;99.90
7461;DHT22;6757;52.258;12.840;2023-02-28T08:13:48;-1.80;99.90
7461;DHT22;6757;52.258;12.840;2023-02-28T08:16:15;-1.60;99.90
7461;DHT22;6757;52.258;12.840;2023-02-28T08:18:47;-1.50;99.90
7461;DHT22;6757;52.258;12.840;2023-02-28T08:21:14;-1.40;99.90
7461;DHT22;6757;52.258;12.840;2023-02-28T08:23:41;-1.20;99.90
7461;DHT22;6757;52.258;12.840;2023-02-28T08:26:09;-1.00;99.90
7461;DHT22;6757;52.258;12.840;2023-02-28T08:28:39;-0.80;99.90
7461;DHT22;6757;52.258;12.840;2023-02-28T08:31:10;-0.70;99.90
7461;DHT22;6757;52.258;12.840;2023-02-28T08:33:39;-0.60;99.90
7461;DHT22;6757;52.258;12.840;2023-02-28T08:36:07;-0.40;99.90
7461;DHT22;6757;52.258;12.840;2023-02-28T08:38:35;-0.30;99.90
7461;DHT22;6757;52.258;12.840;2023-02-28T08:41:04;-0.10;99.90
7461;DHT22;6757;52.258;12.840;2023-02-28T08:43:34;0.00;99.90
7461;DHT22;6757;52.258;12.840;2023-02-28T08:46:01;0.10;99.90
7461;DHT22;6757;52.258;12.840;2023-02-28T08:48:33;0.20;99.90
7461;DHT22;6757;52.258;12.840;2023-02-28T08:51:05;0.40;99.90
7461;DHT22;6757;52.258;12.840;2023-02-28T08:53:35;0.50;99.90
7461;DHT22;6757;52.258;12.840;2023-02-28T08:56:04;0.60;99.90
7461;DHT22;6757;52.258;12.840;2023-02-28T08:58:34;0.70;99.90
7461;DHT22;6757;52.258;12.840;2023-02-28T09:01:07;0.80;99.90
7461;DHT22;6757;52.258;12.840;2023-02-28T09:03:35;0.90;99.90
7461;DHT22;6757;52.258;12.840;2023-02-28T09:06:02;1.00;99.90
7461;DHT22;6757;52.258;12.840;2023-02-28T09:08:30;1.00;99.90
7461;DHT22;6757;52.258;12.840;2023-02-28T09:10:58;1.20;99.90
7461;DHT22;6757;52.258;12.840;2023-02-28T09:13:26;1.20;99.90
7461;DHT22;6757;52.258;12.840;2023-02-28T09:15:56;1.30;99.90
7461;DHT22;6757;52.258;12.840;2023-02-28T09:18:24;1.40;99.90
7461;DHT22;6757;52.258;12.840;2023-02-28T09:20:51;1.50;99.90
7461;DHT22;6757;52.258;12.840;2023-02-28T09:23:19;1.60;99.90
7461;DHT22;6757;52.258;12.840;2023-02-28T09:25:47;1.60;99.90
7461;DHT22;6757;52.258;12.840;2023-02-28T09:28:17;1.70;99.90
7461;DHT22;6757;52.258;12.840;2023-02-28T09:30:46;1.80;99.90
7461;DHT22;6757;52.258;12.840;2023-02-28T09:33:16;1.80;99.90
7461;DHT22;6757;52.258;12.840;2023-02-28T09:35:46;1.90;99.90
7461;DHT22;6757;52.258;12.840;2023-02-28T09:38:13;1.90;99.90
7461;DHT22;6757;52.258;12.840;2023-02-28T09:40:47;2.00;99.90
7461;DHT22;6757;52.258;12.840;2023-02-28T09:43:16;2.10;99.90
7461;DHT22;6757;52.258;12.840;2023-02-28T09:45:47;2.10;99.90
7461;DHT22;6757;52.258;12.840;2023-02-28T09:48:21;2.20;99.90
7461;DHT22;6757;52.258;12.840;2023-02-28T09:50:55;2.20;99.90
7461;DHT22;6757;52.258;12.840;2023-02-28T09:53:28;2.30;99.90
7461;DHT22;6757;52.258;12.840;2023-02-28T09:56:02;2.30;99.90
7461;DHT22;6757;52.258;12.840;2023-02-28T09:58:35;2.40;99.90
7461;DHT22;6757;52.258;12.840;2023-02-28T10:01:08;2.50;99.90
7461;DHT22;6757;52.258;12.840;2023-02-28T10:03:43;2.50;99.90
7461;DHT22;6757;52.258;12.840;2023-02-28T10:06:18;2.60;99.90
7461;DHT22;6757;52.258;12.840;2023-02-28T10:08:52;2.60;99.90
7461;DHT22;6757;52.258;12.840;2023-02-28T10:11:23;2.70;99.90
7461;DHT22;6757;52.258;12.840;2023-02-28T10:13:54;2.70;99.90
7461;DHT22;6757;52.258;12.840;2023-02-28T10:16:31;2.70;99.90
7461;DHT22;6757;52.258;12.840;2023-02-28T10:19:05;2.80;99.90
7461;DHT22;6757;52.258;12.840;2023-02-28T10:21:39;2.80;99.90
7461;DHT22;6757;52.258;12.840;2023-02-28T10:24:16;2.90;99.90
7461;DHT22;6757;52.258;12.840;2023-02-28T10:26:48;2.90;99.90
7461;DHT22;6757;52.258;12.840;2023-02-28T10:29:16;3.00;99.90
7461;DHT22;6757;52.258;12.840;2023-02-28T10:31:43;3.00;99.90
7461;DHT22;6757;52.258;12.840;2023-02-28T10:34:13;3.00;99.90
7461;DHT22;6757;52.258;12.840;2023-02-28T10:36:41;3.10;99.90
7461;DHT22;6757;52.258;12.840;2023-02-28T10:39:37;3.10;99.90
7461;DHT22;6757;52.258;12.840;2023-02-28T10:42:19;3.20;99.90
7461;DHT22;6757;52.258;12.840;2023-02-28T10:45:05;3.40;99.90
7461;DHT22;6757;52.258;12.840;2023-02-28T10:47:34;3.50;99.90
7461;DHT22;6757;52.258;12.840;2023-02-28T10:50:03;3.60;99.90
7461;DHT22;6757;52.258;12.840;2023-02-28T10:52:33;3.80;99.90
7461;DHT22;6757;52.258;12.840;2023-02-28T10:55:18;3.90;99.90
7461;DHT22;6757;52.258;12.840;2023-02-28T10:57:48;4.00;99.90
7461;DHT22;6757;52.258;12.840;2023-02-28T11:00:17;4.00;99.90
7461;DHT22;6757;52.258;12.840;2023-02-28T11:02:45;4.10;99.90
7461;DHT22;6757;52.258;12.840;2023-02-28T11:05:31;4.10;99.90
7461;DHT22;6757;52.258;12.840;2023-02-28T11:08:04;4.20;99.90
7461;DHT22;6757;52.258;12.840;2023-02-28T11:10:33;4.30;99.90
7461;DHT22;6757;52.258;12.840;2023-02-28T11:13:01;4.60;99.90
7461;DHT22;6757;52.258;12.840;2023-02-28T11:15:30;4.50;99.90
7461;DHT22;6757;52.258;12.840;2023-02-28T11:18:00;4.60;99.90
7461;DHT22;6757;52.258;12.840;2023-02-28T11:20:32;4.70;99.90
7461;DHT22;6757;52.258;12.840;2023-02-28T11:23:01;4.80;99.90
7461;DHT22;6757;52.258;12.840;2023-02-28T11:25:31;4.80;99.90
7461;DHT22;6757;52.258;12.840;2023-02-28T11:28:00;4.90;99.90
7461;DHT22;6757;52.258;12.840;2023-02-28T11:30:34;4.90;99.90
7461;DHT22;6757;52.258;12.840;2023-02-28T11:33:22;4.90;99.90
7461;DHT22;6757;52.258;12.840;2023-02-28T11:35:53;4.90;99.90
7461;DHT22;6757;52.258;12.840;2023-02-28T11:38:24;5.00;99.90
7461;DHT22;6757;52.258;12.840;2023-02-28T11:41:03;5.00;99.90
7461;DHT22;6757;52.258;12.840;2023-02-28T11:43:47;5.00;99.90
7461;DHT22;6757;52.258;12.840;2023-02-28T11:46:27;5.00;99.90
7461;DHT22;6757;52.258;12.840;2023-02-28T11:49:05;5.00;99.90
7461;DHT22;6757;52.258;12.840;2023-02-28T11:51:47;5.10;99.90
7461;DHT22;6757;52.258;12.840;2023-02-28T11:54:51;5.10;99.90
7461;DHT22;6757;52.258;12.840;2023-02-28T11:57:33;5.10;99.90
7461;DHT22;6757;52.258;12.840;2023-02-28T12:00:15;5.10;99.90
7461;DHT22;6757;52.258;12.840;2023-02-28T12:03:01;5.10;99.90
7461;DHT22;6757;52.258;12.840;2023-02-28T12:05:43;5.20;99.90
7461;DHT22;6757;52.258;12.840;2023-02-28T12:08:26;5.30;99.90
7461;DHT22;6757;52.258;12.840;2023-02-28T12:11:17;5.40;99.90
7461;DHT22;6757;52.258;12.840;2023-02-28T12:13:56;5.60;99.90
7461;DHT22;6757;52.258;12.840;2023-02-28T12:16:43;5.80;99.90
7461;DHT22;6757;52.258;12.840;2023-02-28T12:19:19;5.80;99.90
7461;DHT22;6757;52.258;12.840;2023-02-28T12:22:01;5.90;99.90
7461;DHT22;6757;52.258;12.840;2023-02-28T12:24:55;6.00;99.90
7461;DHT22;6757;52.258;12.840;2023-02-28T12:27:47;6.10;99.90
7461;DHT22;6757;52.258;12.840;2023-02-28T12:30:18;6.10;99.90
7461;DHT22;6757;52.258;12.840;2023-02-28T12:32:48;6.20;99.90
7461;DHT22;6757;52.258;12.840;2023-02-28T12:35:21;6.30;99.90
7461;DHT22;6757;52.258;12.840;2023-02-28T12:37:52;6.50;99.90
7461;DHT22;6757;52.258;12.840;2023-02-28T12:40:29;6.70;99.90
7461;DHT22;6757;52.258;12.840;2023-02-28T12:43:03;6.90;99.90
7461;DHT22;6757;52.258;12.840;2023-02-28T12:45:39;7.30;99.90
7461;DHT22;6757;52.258;12.840;2023-02-28T12:48:14;7.50;99.20
7461;DHT22;6757;52.258;12.840;2023-02-28T12:50:45;7.70;98.40
7461;DHT22;6757;52.258;12.840;2023-02-28T12:53:18;8.00;97.80
7461;DHT22;6757;52.258;12.840;2023-02-28T12:55:57;8.30;97.40
7461;DHT22;6757;52.258;12.840;2023-02-28T12:58:35;8.70;97.00
7461;DHT22;6757;52.258;12.840;2023-02-28T13:07:36;10.40;93.60
7461;DHT22;6757;52.258;12.840;2023-02-28T13:10:15;11.00;92.50
7461;DHT22;6757;52.258;12.840;2023-02-28T13:12:49;11.60;91.60
7461;DHT22;6757;52.258;12.840;2023-02-28T13:15:19;12.00;90.80
7461;DHT22;6757;52.258;12.840;2023-02-28T13:17:52;12.30;89.60
7461;DHT22;6757;52.258;12.840;2023-02-28T13:20:21;12.50;87.10
7461;DHT22;6757;52.258;12.840;2023-02-28T13:22:51;12.50;84.00
7461;DHT22;6757;52.258;12.840;2023-02-28T13:25:50;12.50;82.70
7461;DHT22;6757;52.258;12.840;2023-02-28T13:38:40;13.10;77.70
7461;DHT22;6757;52.258;12.840;2023-02-28T13:41:46;13.20;76.60
7461;DHT22;6757;52.258;12.840;2023-02-28T13:44:17;13.50;75.80
7461;DHT22;6757;52.258;12.840;2023-02-28T13:49:45;13.60;73.40
7461;DHT22;6757;52.258;12.840;2023-02-28T13:52:16;13.70;73.20
7461;DHT22;6757;52.258;12.840;2023-02-28T13:58:05;13.90;70.90
7461;DHT22;6757;52.258;12.840;2023-02-28T14:01:02;14.10;70.50
7461;DHT22;6757;52.258;12.840;2023-02-28T14:03:45;14.20;70.20
7461;DHT22;6757;52.258;12.840;2023-02-28T14:06:25;14.40;69.80
7461;DHT22;6757;52.258;12.840;2023-02-28T14:08:57;14.60;69.10
7461;DHT22;6757;52.258;12.840;2023-02-28T14:11:31;14.80;68.60
7461;DHT22;6757;52.258;12.840;2023-02-28T14:14:00;14.90;67.90
7461;DHT22;6757;52.258;12.840;2023-02-28T14:16:37;15.10;67.20
7461;DHT22;6757;52.258;12.840;2023-02-28T14:19:12;15.40;66.70
7461;DHT22;6757;52.258;12.840;2023-02-28T14:21:51;15.90;66.00
7461;DHT22;6757;52.258;12.840;2023-02-28T14:24:47;16.30;63.70
7461;DHT22;6757;52.258;12.840;2023-02-28T14:27:35;16.80;62.30
7461;DHT22;6757;52.258;12.840;2023-02-28T14:30:20;17.30;61.20
7461;DHT22;6757;52.258;12.840;2023-02-28T14:33:08;17.70;60.00
7461;DHT22;6757;52.258;12.840;2023-02-28T14:35:53;18.00;59.20
7461;DHT22;6757;52.258;12.840;2023-02-28T14:38:31;18.40;58.70
7461;DHT22;6757;52.258;12.840;2023-02-28T14:41:03;18.50;58.10
7461;DHT22;6757;52.258;12.840;2023-02-28T14:43:32;18.70;57.50
7461;DHT22;6757;52.258;12.840;2023-02-28T14:46:01;18.60;57.00
7461;DHT22;6757;52.258;12.840;2023-02-28T14:48:30;18.50;56.50
7461;DHT22;6757;52.258;12.840;2023-02-28T14:50:58;18.30;56.00
7461;DHT22;6757;52.258;12.840;2023-02-28T14:53:29;18.10;55.80
7461;DHT22;6757;52.258;12.840;2023-02-28T14:55:57;17.90;55.80
7461;DHT22;6757;52.258;12.840;2023-02-28T14:58:27;17.70;55.60
7461;DHT22;6757;52.258;12.840;2023-02-28T15:00:56;17.50;55.40
7461;DHT22;6757;52.258;12.840;2023-02-28T15:03:31;17.40;55.30
7461;DHT22;6757;52.258;12.840;2023-02-28T15:06:01;17.20;55.30
7461;DHT22;6757;52.258;12.840;2023-02-28T15:08:30;17.00;55.10
7461;DHT22;6757;52.258;12.840;2023-02-28T15:11:03;16.90;55.00
7461;DHT22;6757;52.258;12.840;2023-02-28T15:13:36;16.90;54.90
7461;DHT22;6757;52.258;12.840;2023-02-28T15:16:08;16.60;55.20
7461;DHT22;6757;52.258;12.840;2023-02-28T15:18:45;16.60;56.90
7461;DHT22;6757;52.258;12.840;2023-02-28T15:21:17;16.70;58.60
7461;DHT22;6757;52.258;12.840;2023-02-28T15:23:48;16.70;58.60
7461;DHT22;6757;52.258;12.840;2023-02-28T15:26:20;16.50;58.50
7461;DHT22;6757;52.258;12.840;2023-02-28T15:28:59;16.10;58.10
7461;DHT22;6757;52.258;12.840;2023-02-28T15:31:28;15.40;57.10
7461;DHT22;6757;52.258;12.840;2023-02-28T15:34:02;14.60;57.40
7461;DHT22;6757;52.258;12.840;2023-02-28T15:36:32;13.80;57.50
7461;DHT22;6757;52.258;12.840;2023-02-28T15:39:03;13.20;59.20
7461;DHT22;6757;52.258;12.840;2023-02-28T15:41:45;12.80;60.10
7461;DHT22;6757;52.258;12.840;2023-02-28T15:44:25;12.40;60.50
7461;DHT22;6757;52.258;12.840;2023-02-28T15:46:58;12.10;60.80
7461;DHT22;6757;52.258;12.840;2023-02-28T15:49:31;11.80;60.60
7461;DHT22;6757;52.258;12.840;2023-02-28T15:52:04;11.40;60.60
7461;DHT22;6757;52.258;12.840;2023-02-28T15:54:33;11.10;60.80
7461;DHT22;6757;52.258;12.840;2023-02-28T15:57:04;10.90;61.10
7461;DHT22;6757;52.258;12.840;2023-02-28T15:59:35;10.80;61.20
7461;DHT22;6757;52.258;12.840;2023-02-28T16:02:13;10.70;61.40
7461;DHT22;6757;52.258;12.840;2023-02-28T16:07:53;10.60;61.90
7461;DHT22;6757;52.258;12.840;2023-02-28T16:10:24;10.50;62.10
7461;DHT22;6757;52.258;12.840;2023-02-28T16:12:54;10.50;62.40
7461;DHT22;6757;52.258;12.840;2023-02-28T16:15:24;10.50;62.70
7461;DHT22;6757;52.258;12.840;2023-02-28T16:17:53;10.30;62.80
7461;DHT22;6757;52.258;12.840;2023-02-28T16:20:24;10.10;63.30
7461;DHT22;6757;52.258;12.840;2023-02-28T16:22:52;9.90;64.70
7461;DHT22;6757;52.258;12.840;2023-02-28T16:25:21;9.60;65.50
7461;DHT22;6757;52.258;12.840;2023-02-28T16:27:51;9.40;66.30
7461;DHT22;6757;52.258;12.840;2023-02-28T16:30:21;9.10;67.20
7461;DHT22;6757;52.258;12.840;2023-02-28T16:32:50;8.90;67.90
7461;DHT22;6757;52.258;12.840;2023-02-28T16:35:19;8.60;68.70
7461;DHT22;6757;52.258;12.840;2023-02-28T16:37:47;8.30;69.70
7461;DHT22;6757;52.258;12.840;2023-02-28T16:40:16;8.10;70.80
7461;DHT22;6757;52.258;12.840;2023-02-28T16:42:46;7.90;71.00
7461;DHT22;6757;52.258;12.840;2023-02-28T16:45:21;7.60;71.10